Terminal Aerodrome Forecast
Issued by NWS

Home | Current Version | Previous Version | Text Only | Print | Product List | Glossary On
Versions: 1 2 3 4 5 6 7 8 9 10 11 12 13 14 15 16 17 18 19
000
FTUS46 KMFR 251100
TAFRBG
TAF
KRBG 251139Z 2512/2612 18006KT 4SM RA BR BKN030 OVC050
      WS020/19045KT
     FM251600 18010KT P6SM -RA OVC025 WS020/19055KT
     FM251900 18025G35KT P6SM RA OVC025
     FM252200 22020G32KT P6SM -RA OVC020
     FM260100 31012KT P6SM -SHRA OVC025
     FM260400 22006KT P6SM -SHRA BKN025 OVC035=

USA.gov is the U.S. government's official web portal to all federal, state and local government web resources and services.